createdAt,value
2018-07-10T00:02:36.687Z,25.27
2018-07-10T00:07:21.465Z,24.98
2018-07-10T00:12:03.797Z,25.14
2018-07-10T00:14:33.051Z,24.89
2018-07-10T00:17:02.293Z,24.89
2018-07-10T00:19:31.642Z,25.03
2018-07-10T00:22:00.983Z,25.09
2018-07-10T00:24:30.451Z,25.11
2018-07-10T00:26:59.802Z,24.98
2018-07-10T00:29:29.162Z,24.95
2018-07-10T00:31:58.523Z,24.55
2018-07-10T00:34:27.861Z,24.36
2018-07-10T00:36:57.103Z,23.91
2018-07-10T00:39:26.361Z,24.33
2018-07-10T00:41:55.571Z,24.47
2018-07-10T00:44:24.777Z,24.57
2018-07-10T00:46:54.081Z,24.37
2018-07-10T00:49:23.395Z,24.45
2018-07-10T00:51:53.011Z,24.22
2018-07-10T00:54:22.433Z,24.37
2018-07-10T00:56:51.776Z,24.46
2018-07-10T00:59:21.122Z,24.44
2018-07-10T01:01:50.478Z,24.55
2018-07-10T01:04:19.701Z,24.65
2018-07-10T01:06:48.962Z,24.52
2018-07-10T01:09:18.313Z,24.60
2018-07-10T01:11:47.603Z,24.27
2018-07-10T01:14:17.038Z,24.37
2018-07-10T01:16:46.931Z,24.20
2018-07-10T01:19:17.730Z,24.26
2018-07-10T01:21:48.381Z,24.24
2018-07-10T01:24:18.946Z,24.29
2018-07-10T01:26:49.441Z,24.14
2018-07-10T01:29:24.272Z,24.25
2018-07-10T01:31:55.158Z,24.32
2018-07-10T01:34:24.749Z,24.25
2018-07-10T01:36:55.197Z,24.24
2018-07-10T01:39:25.243Z,24.09
2018-07-10T01:41:54.774Z,24.00
2018-07-10T01:44:24.231Z,23.95
2018-07-10T01:46:53.944Z,24.02
2018-07-10T01:49:23.614Z,23.70
2018-07-10T01:51:53.015Z,23.71
2018-07-10T01:54:22.538Z,23.93
2018-07-10T01:56:51.797Z,24.05
2018-07-10T01:59:22.582Z,24.17
2018-07-10T02:01:52.210Z,24.24
2018-07-10T02:04:21.401Z,24.31
2018-07-10T02:06:50.863Z,24.34
2018-07-10T02:09:20.243Z,24.25
2018-07-10T02:11:49.670Z,24.06
2018-07-10T02:14:18.930Z,24.12
2018-07-10T02:16:48.289Z,23.58
2018-07-10T02:19:17.637Z,23.41
2018-07-10T02:21:47.183Z,23.56
2018-07-10T02:24:22.002Z,23.58
2018-07-10T02:26:51.629Z,23.49
2018-07-10T02:29:21.082Z,23.60
2018-07-10T02:31:50.792Z,23.70
2018-07-10T02:34:19.998Z,23.69
2018-07-10T02:36:49.327Z,23.36
2018-07-10T02:39:19.317Z,23.30
2018-07-10T02:41:48.642Z,23.03
2018-07-10T02:44:17.928Z,22.93
2018-07-10T02:46:47.259Z,22.94
2018-07-10T02:49:19.192Z,23.16
2018-07-10T02:51:56.291Z,23.25
2018-07-10T02:54:27.567Z,22.74
2018-07-10T02:56:58.201Z,22.45
2018-07-10T02:59:37.730Z,22.63
2018-07-10T03:02:12.648Z,22.48
2018-07-10T03:04:42.469Z,22.65
2018-07-10T03:07:15.362Z,22.56
2018-07-10T03:09:46.293Z,22.59
2018-07-10T03:12:16.460Z,22.47
2018-07-10T03:14:45.675Z,22.31
2018-07-10T03:17:18.022Z,22.51
2018-07-10T03:19:47.535Z,22.53
2018-07-10T03:22:17.052Z,22.68
2018-07-10T03:24:46.790Z,22.49
2018-07-10T03:27:16.103Z,22.63
2018-07-10T03:29:45.459Z,22.61
2018-07-10T03:32:15.211Z,22.42
2018-07-10T03:34:44.665Z,22.49
2018-07-10T03:37:14.112Z,22.71
2018-07-10T03:39:43.899Z,22.39
2018-07-10T03:42:14.678Z,22.36
2018-07-10T03:44:46.956Z,22.10
2018-07-10T03:47:18.450Z,21.87
2018-07-10T03:49:48.837Z,21.47
2018-07-10T03:52:25.511Z,20.78
2018-07-10T03:54:55.679Z,21.46
2018-07-10T03:57:25.483Z,21.34
2018-07-10T03:59:58.182Z,21.32
2018-07-10T04:02:27.630Z,21.27
2018-07-10T04:04:56.958Z,20.95
2018-07-10T04:07:26.711Z,21.14
2018-07-10T04:09:57.050Z,21.18
2018-07-10T04:12:34.482Z,21.08
2018-07-10T04:15:04.802Z,21.31
2018-07-10T04:17:42.118Z,20.91
2018-07-10T04:20:14.003Z,20.79
2018-07-10T04:22:45.337Z,20.90
2018-07-10T04:25:14.614Z,21.00
2018-07-10T04:27:52.450Z,20.72
2018-07-10T04:30:30.263Z,21.02
2018-07-10T04:33:01.003Z,21.18
2018-07-10T04:35:30.242Z,21.06
2018-07-10T04:37:59.593Z,20.98
2018-07-10T04:40:31.966Z,20.98
2018-07-10T04:43:02.254Z,20.94
2018-07-10T04:45:40.479Z,20.50
2018-07-10T04:48:29.564Z,20.47
2018-07-10T04:51:44.940Z,20.72
2018-07-10T04:54:34.276Z,20.18
2018-07-10T04:57:07.264Z,20.22
2018-07-10T04:59:36.920Z,20.46
2018-07-10T05:02:06.983Z,20.21
2018-07-10T05:04:36.555Z,20.43
2018-07-10T05:07:09.450Z,20.50
2018-07-10T05:09:39.781Z,20.44
2018-07-10T05:12:09.503Z,20.19
2018-07-10T05:14:42.314Z,20.07
2018-07-10T05:17:11.560Z,20.11
2018-07-10T05:19:40.991Z,20.11
2018-07-10T05:22:10.349Z,20.15
2018-07-10T05:24:39.886Z,19.93
2018-07-10T05:27:09.150Z,20.19
2018-07-10T05:29:38.545Z,19.80
2018-07-10T05:32:07.822Z,19.50
2018-07-10T05:34:40.093Z,19.55
2018-07-10T05:37:09.936Z,19.84
2018-07-10T05:39:44.061Z,19.90
2018-07-10T05:42:14.024Z,19.90
2018-07-10T05:44:46.034Z,20.27
2018-07-10T05:47:15.273Z,20.56
2018-07-10T05:49:44.654Z,20.50
2018-07-10T05:52:14.011Z,20.36
2018-07-10T05:54:45.080Z,20.37
2018-07-10T05:57:14.554Z,20.12
2018-07-10T05:59:43.871Z,20.38
2018-07-10T06:02:13.194Z,20.27
2018-07-10T06:04:42.699Z,19.81
2018-07-10T06:07:12.038Z,20.26
2018-07-10T06:09:41.405Z,20.31
2018-07-10T06:12:10.750Z,20.45
2018-07-10T06:14:40.083Z,20.42
2018-07-10T06:17:09.384Z,20.48
2018-07-10T06:19:38.598Z,20.47
2018-07-10T06:22:07.945Z,20.30
2018-07-10T06:24:37.725Z,20.45
2018-07-10T06:27:08.109Z,20.66
2018-07-10T06:29:44.613Z,20.56
2018-07-10T06:32:18.562Z,20.89
2018-07-10T06:34:47.938Z,21.04
2018-07-10T06:37:25.816Z,20.93
2018-07-10T06:39:55.326Z,20.67
2018-07-10T06:42:33.093Z,20.86
2018-07-10T06:45:04.783Z,20.44
2018-07-10T06:47:41.656Z,20.96
2018-07-10T06:50:11.055Z,21.02
2018-07-10T06:52:43.046Z,21.69
2018-07-10T06:55:16.161Z,21.91
2018-07-10T06:57:55.037Z,19.76
2018-07-10T07:00:24.652Z,20.98
2018-07-10T07:02:53.911Z,21.79
2018-07-10T07:05:23.272Z,22.15
2018-07-10T07:07:52.775Z,22.53
2018-07-10T07:10:22.063Z,22.94
2018-07-10T07:12:51.423Z,23.42
2018-07-10T07:15:21.640Z,23.76
2018-07-10T07:17:53.246Z,22.86
2018-07-10T07:20:23.306Z,22.87
2018-07-10T07:22:53.176Z,22.66
2018-07-10T07:25:22.590Z,22.15
2018-07-10T07:27:53.850Z,22.18
2018-07-10T07:30:24.292Z,22.18
2018-07-10T07:32:53.626Z,21.77
2018-07-10T07:35:24.874Z,22.16
2018-07-10T07:37:55.953Z,22.44
2018-07-10T07:40:25.354Z,22.56
2018-07-10T07:42:54.614Z,22.31
2018-07-10T07:45:24.053Z,23.03
2018-07-10T07:47:54.215Z,23.51
2018-07-10T07:50:23.560Z,24.29
2018-07-10T07:52:52.914Z,24.71
2018-07-10T07:55:23.335Z,24.33
2018-07-10T07:57:52.975Z,24.18
2018-07-10T08:00:22.419Z,23.72
2018-07-10T08:02:51.655Z,24.09
2018-07-10T08:05:21.110Z,23.82
2018-07-10T08:07:51.024Z,23.79
2018-07-10T08:10:20.323Z,23.54
2018-07-10T08:12:49.712Z,23.64
2018-07-10T08:15:19.122Z,23.78
2018-07-10T08:17:48.384Z,24.46
2018-07-10T08:20:17.736Z,25.41
2018-07-10T08:22:47.182Z,25.74
2018-07-10T08:25:19.330Z,25.26
2018-07-10T08:27:48.684Z,24.57
2018-07-10T08:30:18.220Z,24.37
2018-07-10T08:32:47.762Z,24.48
2018-07-10T08:35:17.225Z,24.76
2018-07-10T08:37:46.517Z,25.04
2018-07-10T08:40:15.921Z,26.64
2018-07-10T08:42:45.390Z,25.98
2018-07-10T08:45:14.838Z,25.23
2018-07-10T08:47:44.178Z,24.70
2018-07-10T08:50:13.447Z,25.39
2018-07-10T08:52:42.624Z,23.87
2018-07-10T08:55:11.946Z,24.58
2018-07-10T08:57:42.048Z,24.59
2018-07-10T09:00:11.327Z,24.88
2018-07-10T09:02:41.010Z,24.74
2018-07-10T09:05:10.355Z,23.92
2018-07-10T09:07:39.754Z,23.83
2018-07-10T09:10:09.168Z,23.81
2018-07-10T09:12:38.583Z,24.09
2018-07-10T09:15:08.079Z,24.24
2018-07-10T09:17:37.541Z,24.56
2018-07-10T09:20:06.875Z,24.82
2018-07-10T09:22:36.134Z,25.37
2018-07-10T09:25:06.376Z,24.48
2018-07-10T09:27:35.694Z,24.63
2018-07-10T09:30:05.014Z,24.24
2018-07-10T09:32:39.267Z,24.43
2018-07-10T09:35:08.566Z,25.06
2018-07-10T09:37:42.774Z,25.15
2018-07-10T09:40:15.448Z,24.85
2018-07-10T09:42:54.113Z,24.80
2018-07-10T09:45:24.839Z,24.25
2018-07-10T09:47:54.045Z,24.09
2018-07-10T09:50:23.374Z,24.80
2018-07-10T09:52:52.768Z,24.71
2018-07-10T09:55:22.112Z,24.19
2018-07-10T09:57:51.449Z,24.51
2018-07-10T10:01:25.566Z,24.52
2018-07-10T10:03:54.674Z,25.67
2018-07-10T10:06:25.085Z,25.17
2018-07-10T10:08:54.465Z,25.43
2018-07-10T10:11:24.308Z,24.72
2018-07-10T10:13:53.518Z,24.04
2018-07-10T10:16:22.840Z,24.41
2018-07-10T10:18:57.885Z,24.19
2018-07-10T10:21:27.785Z,24.36
2018-07-10T10:23:58.374Z,24.37
2018-07-10T10:26:28.366Z,24.28
2018-07-10T10:28:58.228Z,24.44
2018-07-10T10:31:27.556Z,24.50
2018-07-10T10:33:56.949Z,24.16
2018-07-10T10:36:26.805Z,24.78
2018-07-10T10:38:56.720Z,25.80
2018-07-10T10:41:26.304Z,26.92
2018-07-10T10:43:56.181Z,27.06
2018-07-10T10:46:25.405Z,27.42
2018-07-10T10:48:54.753Z,26.93
2018-07-10T10:51:24.946Z,26.37
2018-07-10T10:53:54.294Z,26.45
2018-07-10T10:56:23.543Z,26.48
2018-07-10T10:58:53.074Z,26.20
2018-07-10T11:01:22.417Z,25.57
2018-07-10T11:03:51.678Z,25.35
2018-07-10T11:06:21.014Z,26.15
2018-07-10T11:08:50.190Z,26.67
2018-07-10T11:11:19.415Z,26.96
2018-07-10T11:13:48.784Z,27.16
2018-07-10T11:16:18.172Z,27.82
2018-07-10T11:18:58.398Z,27.38
2018-07-10T11:21:39.791Z,26.85
2018-07-10T11:24:09.168Z,26.58
2018-07-10T11:26:40.528Z,25.47
2018-07-10T11:29:09.983Z,26.47
2018-07-10T11:31:39.485Z,27.00
2018-07-10T11:34:08.966Z,27.36
2018-07-10T11:36:38.649Z,26.93
2018-07-10T11:39:10.583Z,26.81
2018-07-10T11:41:44.214Z,26.41
2018-07-10T11:44:13.513Z,26.09
2018-07-10T11:46:42.944Z,26.07
2018-07-10T11:49:12.205Z,26.27
2018-07-10T11:51:41.641Z,26.75
2018-07-10T11:54:10.993Z,26.71
2018-07-10T11:56:40.336Z,26.16
2018-07-10T11:59:09.807Z,26.66
2018-07-10T12:01:39.157Z,27.17
2018-07-10T12:04:08.384Z,27.25
2018-07-10T12:06:52.505Z,26.90
2018-07-10T12:09:21.743Z,27.27
2018-07-10T12:11:51.094Z,27.37
2018-07-10T12:14:20.337Z,26.98
2018-07-10T12:16:49.700Z,25.49
2018-07-10T12:19:18.967Z,26.00
2018-07-10T12:21:48.294Z,26.07
2018-07-10T12:24:17.614Z,25.16
2018-07-10T12:26:46.891Z,24.54
2018-07-10T12:29:16.267Z,25.04
2018-07-10T12:31:45.699Z,24.96
2018-07-10T12:34:15.075Z,25.45
2018-07-10T12:36:44.407Z,25.34
2018-07-10T12:39:13.851Z,25.31
2018-07-10T12:41:43.336Z,25.60
2018-07-10T12:44:12.694Z,26.31
2018-07-10T12:46:42.208Z,26.64
2018-07-10T12:49:11.474Z,26.28
2018-07-10T12:51:40.730Z,26.00
2018-07-10T12:54:10.114Z,25.42
2018-07-10T12:56:39.474Z,24.99
2018-07-10T12:59:08.916Z,25.78
2018-07-10T13:01:38.266Z,25.88
2018-07-10T13:04:07.618Z,25.39
2018-07-10T13:06:36.915Z,25.24
2018-07-10T13:09:06.456Z,25.87
2018-07-10T13:11:35.728Z,26.12
2018-07-10T13:14:05.128Z,26.34
2018-07-10T13:16:34.470Z,25.70
2018-07-10T13:19:03.719Z,25.42
2018-07-10T13:21:33.008Z,25.64
2018-07-10T13:24:02.323Z,26.02
2018-07-10T13:26:31.625Z,26.15
2018-07-10T13:29:01.050Z,26.25
2018-07-10T13:31:30.327Z,26.32
2018-07-10T13:33:59.661Z,26.78
2018-07-10T13:36:28.901Z,27.07
2018-07-10T13:38:58.245Z,26.63
2018-07-10T13:41:27.530Z,25.98
2018-07-10T13:43:56.842Z,26.08
2018-07-10T13:46:26.099Z,25.86
2018-07-10T13:48:55.453Z,25.25
2018-07-10T13:51:24.721Z,25.39
2018-07-10T13:53:54.054Z,24.89
2018-07-10T13:56:23.547Z,25.04
2018-07-10T13:58:52.988Z,25.39
2018-07-10T14:01:22.212Z,25.72
2018-07-10T14:03:51.538Z,25.16
2018-07-10T14:06:20.703Z,25.12
2018-07-10T14:08:49.963Z,25.63
2018-07-10T14:11:19.217Z,25.59
2018-07-10T14:13:48.531Z,25.73
2018-07-10T14:16:17.812Z,25.76
2018-07-10T14:18:47.668Z,26.19
2018-07-10T14:21:17.018Z,25.56
2018-07-10T14:23:46.253Z,25.00
2018-07-10T14:26:15.316Z,25.10
2018-07-10T14:28:44.573Z,25.56
2018-07-10T14:31:13.932Z,26.60
2018-07-10T14:33:43.896Z,27.25
2018-07-10T14:36:13.247Z,27.36
2018-07-10T14:38:45.375Z,27.47
2018-07-10T14:41:15.701Z,27.19
2018-07-10T14:43:47.242Z,27.28
2018-07-10T14:46:20.775Z,26.13
2018-07-10T14:48:53.454Z,26.04
2018-07-10T14:51:38.973Z,25.67
2018-07-10T14:54:08.275Z,25.62
2018-07-10T14:56:37.714Z,26.18
2018-07-10T14:59:07.304Z,26.69
2018-07-10T15:01:36.537Z,26.35
2018-07-10T15:04:05.797Z,25.59
2018-07-10T15:06:35.687Z,26.19
2018-07-10T15:09:06.280Z,25.96
2018-07-10T15:11:35.536Z,26.22
2018-07-10T15:14:09.662Z,26.48
2018-07-10T15:16:44.195Z,26.36
2018-07-10T15:19:13.706Z,26.14
2018-07-10T15:21:42.945Z,25.79
2018-07-10T15:24:12.287Z,25.52
2018-07-10T15:26:41.555Z,25.35
2018-07-10T15:29:10.973Z,25.40
2018-07-10T15:31:40.274Z,25.80
2018-07-10T15:34:09.603Z,25.87
2018-07-10T15:36:38.886Z,26.30
2018-07-10T15:39:08.402Z,26.22
2018-07-10T15:41:37.741Z,25.66
2018-07-10T15:44:07.017Z,25.69
2018-07-10T15:46:36.272Z,25.72
2018-07-10T15:49:05.734Z,26.00
2018-07-10T15:51:34.978Z,25.72
2018-07-10T15:54:04.431Z,25.89
2018-07-10T15:56:33.655Z,26.35
2018-07-10T15:59:02.995Z,26.59
2018-07-10T16:01:32.350Z,26.39
2018-07-10T16:04:01.730Z,25.91
2018-07-10T16:06:31.733Z,25.72
2018-07-10T16:09:09.182Z,25.58
2018-07-10T16:11:39.618Z,26.18
2018-07-10T16:14:09.760Z,25.75
2018-07-10T16:16:39.292Z,26.13
2018-07-10T16:19:13.023Z,25.87
2018-07-10T16:21:50.429Z,25.81
2018-07-10T16:24:19.982Z,25.79
2018-07-10T16:26:49.246Z,25.02
2018-07-10T16:29:20.353Z,24.86
2018-07-10T16:31:51.066Z,24.95
2018-07-10T16:34:20.451Z,24.46
2018-07-10T16:36:49.801Z,23.76
2018-07-10T16:39:19.148Z,24.31
2018-07-10T16:41:53.601Z,24.54
2018-07-10T16:44:22.969Z,24.63
2018-07-10T16:47:05.872Z,24.53
2018-07-10T16:49:40.826Z,24.54
2018-07-10T16:52:18.723Z,24.63
2018-07-10T16:54:48.450Z,24.67
2018-07-10T16:57:17.912Z,24.73
2018-07-10T16:59:47.145Z,24.82
2018-07-10T17:02:16.590Z,24.14
2018-07-10T17:04:45.961Z,24.72
2018-07-10T17:07:15.203Z,24.90
2018-07-10T17:09:44.544Z,24.69
2018-07-10T17:12:13.802Z,24.92
2018-07-10T17:15:00.853Z,25.16
2018-07-10T17:17:30.201Z,25.10
2018-07-10T17:19:59.694Z,24.47
2018-07-10T17:22:29.486Z,24.44
2018-07-10T17:24:59.299Z,24.79
2018-07-10T17:27:32.592Z,24.88
2018-07-10T17:30:03.453Z,24.48
2018-07-10T17:32:34.081Z,24.63
2018-07-10T17:35:04.202Z,24.63
2018-07-10T17:37:37.675Z,24.52
2018-07-10T17:40:07.109Z,24.11
2018-07-10T17:42:38.942Z,24.00
2018-07-10T17:45:10.922Z,24.09
2018-07-10T17:47:40.439Z,23.81
2018-07-10T17:50:10.112Z,24.17
2018-07-10T17:52:39.673Z,24.28
2018-07-10T17:55:09.312Z,24.35
2018-07-10T17:57:39.348Z,24.37
2018-07-10T18:00:08.881Z,24.02
2018-07-10T18:02:38.328Z,23.77
2018-07-10T18:05:07.743Z,24.03
2018-07-10T18:07:37.117Z,24.19
2018-07-10T18:10:06.494Z,24.18
2018-07-10T18:12:35.722Z,24.11
2018-07-10T18:15:05.004Z,24.32
2018-07-10T18:17:34.526Z,24.21
2018-07-10T18:20:03.686Z,24.20
2018-07-10T18:22:32.946Z,23.72
2018-07-10T18:25:02.175Z,24.12
2018-07-10T18:27:31.587Z,23.31
2018-07-10T18:30:01.240Z,23.31
2018-07-10T18:32:30.463Z,23.26
2018-07-10T18:35:00.299Z,23.50
2018-07-10T18:37:29.562Z,23.49
2018-07-10T18:39:58.910Z,23.20
2018-07-10T18:42:28.372Z,23.46
2018-07-10T18:44:57.682Z,22.96
2018-07-10T18:47:26.899Z,23.24
2018-07-10T18:49:56.982Z,23.26
2018-07-10T18:52:28.984Z,23.36
2018-07-10T18:54:59.272Z,23.01
2018-07-10T18:58:10.287Z,23.01
2018-07-10T19:02:51.883Z,22.55
2018-07-10T19:05:21.173Z,22.05
2018-07-10T19:07:51.138Z,21.94
2018-07-10T19:10:20.836Z,22.03
2018-07-10T19:12:50.102Z,21.71
2018-07-10T19:15:19.516Z,21.78
2018-07-10T19:17:48.871Z,22.03
2018-07-10T19:20:18.239Z,21.96
2018-07-10T19:22:57.975Z,21.83
2018-07-10T19:25:27.771Z,21.58
2018-07-10T19:27:58.722Z,21.74
2018-07-10T19:31:05.191Z,21.71
2018-07-10T19:33:39.137Z,21.74
2018-07-10T19:36:08.411Z,21.54
2018-07-10T19:38:37.975Z,21.36
2018-07-10T19:41:07.840Z,21.49
2018-07-10T19:43:38.663Z,21.54
2018-07-10T19:46:07.970Z,21.34
2018-07-10T19:48:37.373Z,21.07
2018-07-10T19:51:09.835Z,20.89
2018-07-10T19:53:39.221Z,21.02
2018-07-10T19:56:08.554Z,20.79
2018-07-10T19:58:41.102Z,20.76
2018-07-10T20:01:31.719Z,20.90
2018-07-10T20:04:08.264Z,20.44
2018-07-10T20:07:51.529Z,20.25
2018-07-10T20:10:40.990Z,19.82
2018-07-10T20:13:16.707Z,19.85
2018-07-10T20:16:01.470Z,19.99
2018-07-10T20:20:51.408Z,19.98
2018-07-10T20:23:27.492Z,19.60
2018-07-10T20:26:18.030Z,19.59
2018-07-10T20:28:58.745Z,19.77
2018-07-10T20:32:03.380Z,19.84
2018-07-10T20:34:37.074Z,20.00
2018-07-10T20:37:06.474Z,19.81
2018-07-10T20:39:37.746Z,19.76
2018-07-10T20:42:07.022Z,19.81
2018-07-10T20:45:08.502Z,19.60
2018-07-10T20:47:59.561Z,19.88
2018-07-10T20:50:50.109Z,20.20
2018-07-10T20:53:32.893Z,19.64
2018-07-10T20:56:08.381Z,19.28
2018-07-10T20:58:42.661Z,19.09
2018-07-10T21:01:12.003Z,19.09
2018-07-10T21:03:49.355Z,19.24
2018-07-10T21:07:26.753Z,19.29
2018-07-10T21:10:09.260Z,18.53
2018-07-10T21:12:59.042Z,18.51
2018-07-10T21:15:45.849Z,18.62
2018-07-10T21:18:34.811Z,18.47
2018-07-10T21:21:11.375Z,18.20
2018-07-10T21:23:49.413Z,18.24
2018-07-10T21:27:26.470Z,18.32
2018-07-10T21:30:23.841Z,18.67
2018-07-10T21:32:57.242Z,18.69
2018-07-10T21:35:30.221Z,18.50
2018-07-10T21:38:10.175Z,18.52
2018-07-10T21:42:57.303Z,18.43
2018-07-10T21:45:37.353Z,18.52
2018-07-10T21:48:14.356Z,18.49
2018-07-10T21:50:48.351Z,18.24
2018-07-10T21:53:17.554Z,18.28
2018-07-10T21:55:46.931Z,17.93
2018-07-10T21:58:18.518Z,18.08
2018-07-10T22:01:59.696Z,18.30
2018-07-10T22:04:30.511Z,18.18
2018-07-10T22:07:01.277Z,18.13
2018-07-10T22:09:31.826Z,17.90
2018-07-10T22:12:01.961Z,18.03
2018-07-10T22:14:31.305Z,18.22
2018-07-10T22:17:02.800Z,18.17
2018-07-10T22:19:34.550Z,18.13
2018-07-10T22:22:04.009Z,18.03
2018-07-10T22:24:33.606Z,18.10
2018-07-10T22:27:02.882Z,18.20
2018-07-10T22:29:37.277Z,18.19
2018-07-10T22:32:11.421Z,17.99
2018-07-10T22:34:43.207Z,17.95
2018-07-10T22:37:13.190Z,18.00
2018-07-10T22:39:43.322Z,18.05
2018-07-10T22:42:12.540Z,18.18
2018-07-10T22:44:46.170Z,18.18
2018-07-10T22:47:16.602Z,18.22
2018-07-10T22:49:46.083Z,18.24
2018-07-10T22:52:15.237Z,18.16
2018-07-10T22:54:44.601Z,18.21
2018-07-10T22:57:14.410Z,18.22
2018-07-10T22:59:45.335Z,18.13
2018-07-10T23:02:14.710Z,18.13
2018-07-10T23:04:44.142Z,18.25
2018-07-10T23:07:13.481Z,17.98
2018-07-10T23:09:42.822Z,18.01
2018-07-10T23:12:12.354Z,17.96
2018-07-10T23:14:41.674Z,17.92
2018-07-10T23:17:11.158Z,18.01
2018-07-10T23:19:40.738Z,17.88
2018-07-10T23:22:10.077Z,17.82
2018-07-10T23:24:39.412Z,17.86
2018-07-10T23:27:08.839Z,17.99
2018-07-10T23:29:39.342Z,17.97
2018-07-10T23:32:09.454Z,17.93
2018-07-10T23:34:38.759Z,17.78
2018-07-10T23:37:13.381Z,17.83
2018-07-10T23:39:46.824Z,17.83
2018-07-10T23:42:25.139Z,17.83
2018-07-10T23:44:54.474Z,17.90
2018-07-10T23:47:29.985Z,17.83
2018-07-10T23:50:07.402Z,17.94
2018-07-10T23:54:47.890Z,18.02
2018-07-10T23:57:17.281Z,17.73
2018-07-10T23:59:46.526Z,17.81
